Altdorf, Switzerland
Current Conditions -  °F | °C
As of 4:50 AM on Sunday 21 Dec 2014 (Local Time) from LSZC Reporting Station
Overcast Overcast  
Wind Chill: 41°   Ceiling: 5000
Heat Index: 41°   Visibility: 6mi
Dew Point: 32°   Wind: 3mph
Humidity: 70%   Direction: 240°WSW
Pressure: 30.53"   Gusts: NA
Location:  46.89°N, 8.64°E
Report Text: LSZC 210350Z AUTO 24003KT 9999 OVC050 05/M00 Q1034
Loading
Personal Weather Stations






























Interactive Weather Map New forecast layout! Learn more

10-Day Weather Forecast

Advertisements
Track Severe Weather on mobile